sensor_id;sensor_type;location;lat;lon;timestamp;P1;durP1;ratioP1;P2;durP2;ratioP2
17983;SDS011;9117;52.420;20.728;2023-03-24T00:02:02;13.48;;;6.15;;
17983;SDS011;9117;52.420;20.728;2023-03-24T00:04:30;10.95;;;5.85;;
17983;SDS011;9117;52.420;20.728;2023-03-24T00:06:58;12.52;;;6.30;;
17983;SDS011;9117;52.420;20.728;2023-03-24T00:09:28;13.52;;;5.90;;
17983;SDS011;9117;52.420;20.728;2023-03-24T00:11:57;13.30;;;6.68;;
17983;SDS011;9117;52.420;20.728;2023-03-24T00:14:26;15.27;;;6.75;;
17983;SDS011;9117;52.420;20.728;2023-03-24T00:16:57;14.05;;;6.28;;
17983;SDS011;9117;52.420;20.728;2023-03-24T00:19:25;12.18;;;6.35;;
17983;SDS011;9117;52.420;20.728;2023-03-24T00:21:54;9.52;;;5.80;;
17983;SDS011;9117;52.420;20.728;2023-03-24T00:24:22;14.85;;;6.15;;
17983;SDS011;9117;52.420;20.728;2023-03-24T00:26:50;11.23;;;5.97;;
17983;SDS011;9117;52.420;20.728;2023-03-24T00:29:23;11.25;;;6.00;;
17983;SDS011;9117;52.420;20.728;2023-03-24T00:31:51;9.80;;;5.20;;
17983;SDS011;9117;52.420;20.728;2023-03-24T00:34:22;10.77;;;5.75;;
17983;SDS011;9117;52.420;20.728;2023-03-24T00:36:50;12.02;;;5.88;;
17983;SDS011;9117;52.420;20.728;2023-03-24T00:39:19;12.68;;;7.50;;
17983;SDS011;9117;52.420;20.728;2023-03-24T00:41:47;12.98;;;7.13;;
17983;SDS011;9117;52.420;20.728;2023-03-24T00:44:15;17.35;;;8.30;;
17983;SDS011;9117;52.420;20.728;2023-03-24T00:46:44;15.85;;;8.90;;
17983;SDS011;9117;52.420;20.728;2023-03-24T00:49:22;18.15;;;9.15;;
17983;SDS011;9117;52.420;20.728;2023-03-24T00:52:07;15.27;;;8.70;;
17983;SDS011;9117;52.420;20.728;2023-03-24T00:54:36;16.23;;;8.60;;
17983;SDS011;9117;52.420;20.728;2023-03-24T00:57:05;15.63;;;8.35;;
17983;SDS011;9117;52.420;20.728;2023-03-24T00:59:34;14.43;;;8.43;;
17983;SDS011;9117;52.420;20.728;2023-03-24T01:02:07;16.00;;;9.00;;
17983;SDS011;9117;52.420;20.728;2023-03-24T01:04:38;14.20;;;7.97;;
17983;SDS011;9117;52.420;20.728;2023-03-24T01:07:13;20.70;;;9.38;;
17983;SDS011;9117;52.420;20.728;2023-03-24T01:09:44;15.68;;;8.80;;
17983;SDS011;9117;52.420;20.728;2023-03-24T01:12:22;16.83;;;9.07;;
17983;SDS011;9117;52.420;20.728;2023-03-24T01:14:51;15.13;;;8.50;;
17983;SDS011;9117;52.420;20.728;2023-03-24T01:17:19;16.65;;;9.25;;
17983;SDS011;9117;52.420;20.728;2023-03-24T01:19:52;17.63;;;8.70;;
17983;SDS011;9117;52.420;20.728;2023-03-24T01:22:21;16.85;;;9.25;;
17983;SDS011;9117;52.420;20.728;2023-03-24T01:24:53;16.90;;;9.18;;
17983;SDS011;9117;52.420;20.728;2023-03-24T01:27:21;17.80;;;8.13;;
17983;SDS011;9117;52.420;20.728;2023-03-24T01:29:50;15.80;;;9.50;;
17983;SDS011;9117;52.420;20.728;2023-03-24T01:32:18;14.63;;;8.70;;
17983;SDS011;9117;52.420;20.728;2023-03-24T01:34:46;17.30;;;9.35;;
17983;SDS011;9117;52.420;20.728;2023-03-24T01:37:16;17.35;;;8.95;;
17983;SDS011;9117;52.420;20.728;2023-03-24T01:39:44;17.25;;;8.75;;
17983;SDS011;9117;52.420;20.728;2023-03-24T01:42:15;18.42;;;9.75;;
17983;SDS011;9117;52.420;20.728;2023-03-24T01:44:46;16.63;;;9.30;;
17983;SDS011;9117;52.420;20.728;2023-03-24T01:47:15;19.43;;;8.90;;
17983;SDS011;9117;52.420;20.728;2023-03-24T01:49:45;16.37;;;9.20;;
17983;SDS011;9117;52.420;20.728;2023-03-24T01:52:21;18.45;;;9.40;;
17983;SDS011;9117;52.420;20.728;2023-03-24T01:54:53;20.45;;;10.05;;
17983;SDS011;9117;52.420;20.728;2023-03-24T01:57:25;17.67;;;9.23;;
17983;SDS011;9117;52.420;20.728;2023-03-24T01:59:57;15.00;;;9.63;;
17983;SDS011;9117;52.420;20.728;2023-03-24T02:02:33;16.65;;;9.18;;
17983;SDS011;9117;52.420;20.728;2023-03-24T02:05:04;22.73;;;11.00;;
17983;SDS011;9117;52.420;20.728;2023-03-24T02:07:38;18.50;;;9.77;;
17983;SDS011;9117;52.420;20.728;2023-03-24T02:10:11;18.13;;;9.87;;
17983;SDS011;9117;52.420;20.728;2023-03-24T02:12:42;16.00;;;9.57;;
17983;SDS011;9117;52.420;20.728;2023-03-24T02:15:12;17.73;;;9.20;;
17983;SDS011;9117;52.420;20.728;2023-03-24T02:17:46;17.20;;;8.77;;
17983;SDS011;9117;52.420;20.728;2023-03-24T02:20:51;18.13;;;8.77;;
17983;SDS011;9117;52.420;20.728;2023-03-24T02:26:55;14.03;;;8.63;;
17983;SDS011;9117;52.420;20.728;2023-03-24T02:32:55;17.43;;;8.97;;
17983;SDS011;9117;52.420;20.728;2023-03-24T02:41:54;15.63;;;8.43;;
17983;SDS011;9117;52.420;20.728;2023-03-24T02:44:33;17.03;;;9.30;;
17983;SDS011;9117;52.420;20.728;2023-03-24T02:47:09;19.10;;;9.17;;
17983;SDS011;9117;52.420;20.728;2023-03-24T02:49:44;18.07;;;9.00;;
17983;SDS011;9117;52.420;20.728;2023-03-24T02:52:19;19.63;;;10.10;;
17983;SDS011;9117;52.420;20.728;2023-03-24T02:54:55;16.70;;;10.17;;
17983;SDS011;9117;52.420;20.728;2023-03-24T02:57:29;18.43;;;9.77;;
17983;SDS011;9117;52.420;20.728;2023-03-24T03:00:03;17.90;;;9.37;;
17983;SDS011;9117;52.420;20.728;2023-03-24T03:02:38;16.83;;;9.30;;
17983;SDS011;9117;52.420;20.728;2023-03-24T03:05:13;17.60;;;9.70;;
17983;SDS011;9117;52.420;20.728;2023-03-24T03:07:46;15.77;;;8.50;;
17983;SDS011;9117;52.420;20.728;2023-03-24T03:10:19;16.97;;;9.37;;
17983;SDS011;9117;52.420;20.728;2023-03-24T03:12:51;19.40;;;9.20;;
17983;SDS011;9117;52.420;20.728;2023-03-24T03:15:23;17.40;;;9.50;;
17983;SDS011;9117;52.420;20.728;2023-03-24T03:17:55;15.90;;;9.03;;
17983;SDS011;9117;52.420;20.728;2023-03-24T03:20:28;16.87;;;8.97;;
17983;SDS011;9117;52.420;20.728;2023-03-24T03:23:05;19.30;;;8.73;;
17983;SDS011;9117;52.420;20.728;2023-03-24T03:25:38;18.37;;;10.20;;
17983;SDS011;9117;52.420;20.728;2023-03-24T03:28:13;16.17;;;9.23;;
17983;SDS011;9117;52.420;20.728;2023-03-24T03:30:46;17.03;;;9.57;;
17983;SDS011;9117;52.420;20.728;2023-03-24T03:33:20;17.93;;;8.97;;
17983;SDS011;9117;52.420;20.728;2023-03-24T03:35:52;16.47;;;8.97;;
17983;SDS011;9117;52.420;20.728;2023-03-24T03:38:27;15.43;;;8.53;;
17983;SDS011;9117;52.420;20.728;2023-03-24T03:41:04;14.13;;;8.47;;
17983;SDS011;9117;52.420;20.728;2023-03-24T03:43:32;17.17;;;8.77;;
17983;SDS011;9117;52.420;20.728;2023-03-24T03:46:02;15.50;;;8.63;;
17983;SDS011;9117;52.420;20.728;2023-03-24T03:48:32;16.87;;;8.90;;
17983;SDS011;9117;52.420;20.728;2023-03-24T03:51:01;16.47;;;8.97;;
17983;SDS011;9117;52.420;20.728;2023-03-24T03:53:40;16.77;;;9.40;;
17983;SDS011;9117;52.420;20.728;2023-03-24T03:56:15;16.93;;;9.50;;
17983;SDS011;9117;52.420;20.728;2023-03-24T03:58:45;17.87;;;10.07;;
17983;SDS011;9117;52.420;20.728;2023-03-24T04:01:15;18.23;;;9.67;;
17983;SDS011;9117;52.420;20.728;2023-03-24T04:04:09;18.73;;;10.03;;
17983;SDS011;9117;52.420;20.728;2023-03-24T04:06:54;19.77;;;11.37;;
17983;SDS011;9117;52.420;20.728;2023-03-24T04:09:36;22.97;;;11.27;;
17983;SDS011;9117;52.420;20.728;2023-03-24T04:12:20;17.83;;;10.07;;
17983;SDS011;9117;52.420;20.728;2023-03-24T04:15:18;18.60;;;9.60;;
17983;SDS011;9117;52.420;20.728;2023-03-24T04:18:05;19.07;;;9.53;;
17983;SDS011;9117;52.420;20.728;2023-03-24T04:20:56;15.40;;;10.07;;
17983;SDS011;9117;52.420;20.728;2023-03-24T04:23:41;15.70;;;9.80;;
17983;SDS011;9117;52.420;20.728;2023-03-24T04:26:16;16.30;;;10.27;;
17983;SDS011;9117;52.420;20.728;2023-03-24T04:29:00;21.03;;;10.50;;
17983;SDS011;9117;52.420;20.728;2023-03-24T04:31:34;34.53;;;15.53;;
17983;SDS011;9117;52.420;20.728;2023-03-24T04:34:10;29.33;;;14.37;;
17983;SDS011;9117;52.420;20.728;2023-03-24T04:36:46;30.30;;;13.93;;
17983;SDS011;9117;52.420;20.728;2023-03-24T04:39:20;28.63;;;13.30;;
17983;SDS011;9117;52.420;20.728;2023-03-24T04:41:53;34.77;;;14.07;;
17983;SDS011;9117;52.420;20.728;2023-03-24T04:44:25;39.30;;;14.23;;
17983;SDS011;9117;52.420;20.728;2023-03-24T04:46:55;36.97;;;13.40;;
17983;SDS011;9117;52.420;20.728;2023-03-24T04:49:24;32.87;;;12.77;;
17983;SDS011;9117;52.420;20.728;2023-03-24T04:51:52;28.53;;;11.77;;
17983;SDS011;9117;52.420;20.728;2023-03-24T04:54:21;19.60;;;10.03;;
17983;SDS011;9117;52.420;20.728;2023-03-24T04:56:50;27.37;;;12.27;;
17983;SDS011;9117;52.420;20.728;2023-03-24T04:59:21;28.93;;;12.03;;
17983;SDS011;9117;52.420;20.728;2023-03-24T05:01:51;39.80;;;13.10;;
17983;SDS011;9117;52.420;20.728;2023-03-24T05:04:20;22.60;;;10.47;;
17983;SDS011;9117;52.420;20.728;2023-03-24T05:06:50;19.73;;;10.43;;
17983;SDS011;9117;52.420;20.728;2023-03-24T05:09:19;16.27;;;9.13;;
17983;SDS011;9117;52.420;20.728;2023-03-24T05:11:49;13.43;;;8.40;;
17983;SDS011;9117;52.420;20.728;2023-03-24T05:14:18;15.83;;;8.20;;
17983;SDS011;9117;52.420;20.728;2023-03-24T05:16:46;18.13;;;8.60;;
17983;SDS011;9117;52.420;20.728;2023-03-24T05:19:16;19.07;;;9.53;;
17983;SDS011;9117;52.420;20.728;2023-03-24T05:21:44;19.43;;;10.53;;
17983;SDS011;9117;52.420;20.728;2023-03-24T05:24:13;28.30;;;11.13;;
17983;SDS011;9117;52.420;20.728;2023-03-24T05:26:41;22.57;;;11.17;;
17983;SDS011;9117;52.420;20.728;2023-03-24T05:29:09;40.97;;;14.87;;
17983;SDS011;9117;52.420;20.728;2023-03-24T05:31:37;39.60;;;14.93;;
17983;SDS011;9117;52.420;20.728;2023-03-24T05:34:06;30.30;;;13.43;;
17983;SDS011;9117;52.420;20.728;2023-03-24T05:36:35;22.63;;;11.40;;
17983;SDS011;9117;52.420;20.728;2023-03-24T05:39:03;18.73;;;10.37;;
17983;SDS011;9117;52.420;20.728;2023-03-24T05:41:31;20.00;;;9.80;;
17983;SDS011;9117;52.420;20.728;2023-03-24T05:44:00;21.00;;;11.50;;
17983;SDS011;9117;52.420;20.728;2023-03-24T05:46:28;22.07;;;11.67;;
17983;SDS011;9117;52.420;20.728;2023-03-24T05:48:56;25.87;;;11.83;;
17983;SDS011;9117;52.420;20.728;2023-03-24T05:51:24;24.63;;;13.33;;
17983;SDS011;9117;52.420;20.728;2023-03-24T05:53:54;27.23;;;14.33;;
17983;SDS011;9117;52.420;20.728;2023-03-24T05:56:22;24.50;;;13.50;;
17983;SDS011;9117;52.420;20.728;2023-03-24T05:58:51;22.67;;;11.27;;
17983;SDS011;9117;52.420;20.728;2023-03-24T06:01:19;17.93;;;10.00;;
17983;SDS011;9117;52.420;20.728;2023-03-24T06:03:47;21.60;;;10.57;;
17983;SDS011;9117;52.420;20.728;2023-03-24T06:06:16;19.00;;;10.20;;
17983;SDS011;9117;52.420;20.728;2023-03-24T06:08:44;17.23;;;10.33;;
17983;SDS011;9117;52.420;20.728;2023-03-24T06:11:13;16.70;;;10.13;;
17983;SDS011;9117;52.420;20.728;2023-03-24T06:13:42;17.23;;;9.83;;
17983;SDS011;9117;52.420;20.728;2023-03-24T06:16:10;19.63;;;9.73;;
17983;SDS011;9117;52.420;20.728;2023-03-24T06:18:38;20.63;;;10.50;;
17983;SDS011;9117;52.420;20.728;2023-03-24T06:21:08;16.03;;;10.00;;
17983;SDS011;9117;52.420;20.728;2023-03-24T06:23:36;18.88;;;10.07;;
17983;SDS011;9117;52.420;20.728;2023-03-24T06:26:06;16.27;;;9.80;;
17983;SDS011;9117;52.420;20.728;2023-03-24T06:28:38;18.90;;;9.93;;
17983;SDS011;9117;52.420;20.728;2023-03-24T06:31:07;15.77;;;9.83;;
17983;SDS011;9117;52.420;20.728;2023-03-24T06:33:40;16.47;;;9.57;;
17983;SDS011;9117;52.420;20.728;2023-03-24T06:36:09;18.30;;;9.93;;
17983;SDS011;9117;52.420;20.728;2023-03-24T06:38:39;20.27;;;10.50;;
17983;SDS011;9117;52.420;20.728;2023-03-24T06:41:08;16.67;;;10.07;;
17983;SDS011;9117;52.420;20.728;2023-03-24T06:43:37;17.83;;;10.73;;
17983;SDS011;9117;52.420;20.728;2023-03-24T06:46:06;18.33;;;9.65;;
17983;SDS011;9117;52.420;20.728;2023-03-24T06:48:35;23.45;;;10.52;;
17983;SDS011;9117;52.420;20.728;2023-03-24T06:51:04;34.65;;;10.63;;
17983;SDS011;9117;52.420;20.728;2023-03-24T06:53:32;18.38;;;9.88;;
17983;SDS011;9117;52.420;20.728;2023-03-24T06:56:01;19.17;;;10.15;;
17983;SDS011;9117;52.420;20.728;2023-03-24T06:58:29;19.77;;;9.43;;
17983;SDS011;9117;52.420;20.728;2023-03-24T07:01:00;20.90;;;10.32;;
17983;SDS011;9117;52.420;20.728;2023-03-24T07:03:28;18.10;;;9.85;;
17983;SDS011;9117;52.420;20.728;2023-03-24T07:05:57;17.55;;;9.73;;
17983;SDS011;9117;52.420;20.728;2023-03-24T07:08:26;17.13;;;9.50;;
17983;SDS011;9117;52.420;20.728;2023-03-24T07:11:03;16.65;;;9.88;;
17983;SDS011;9117;52.420;20.728;2023-03-24T07:13:34;16.88;;;10.02;;
17983;SDS011;9117;52.420;20.728;2023-03-24T07:16:04;17.88;;;10.13;;
17983;SDS011;9117;52.420;20.728;2023-03-24T07:18:33;19.27;;;10.35;;
17983;SDS011;9117;52.420;20.728;2023-03-24T07:21:01;17.67;;;9.75;;
17983;SDS011;9117;52.420;20.728;2023-03-24T07:23:30;17.80;;;9.60;;
17983;SDS011;9117;52.420;20.728;2023-03-24T07:25:58;21.40;;;9.63;;
17983;SDS011;9117;52.420;20.728;2023-03-24T07:28:26;17.60;;;9.32;;
17983;SDS011;9117;52.420;20.728;2023-03-24T07:30:54;17.17;;;9.65;;
17983;SDS011;9117;52.420;20.728;2023-03-24T07:33:24;20.27;;;9.57;;
17983;SDS011;9117;52.420;20.728;2023-03-24T07:35:53;17.40;;;9.48;;
17983;SDS011;9117;52.420;20.728;2023-03-24T07:38:22;18.05;;;9.45;;
17983;SDS011;9117;52.420;20.728;2023-03-24T07:40:51;17.40;;;9.55;;
17983;SDS011;9117;52.420;20.728;2023-03-24T07:43:19;16.42;;;8.95;;
17983;SDS011;9117;52.420;20.728;2023-03-24T07:45:48;13.20;;;8.63;;
17983;SDS011;9117;52.420;20.728;2023-03-24T07:48:16;18.17;;;9.50;;
17983;SDS011;9117;52.420;20.728;2023-03-24T07:50:46;17.00;;;8.48;;
17983;SDS011;9117;52.420;20.728;2023-03-24T07:53:14;15.75;;;8.40;;
17983;SDS011;9117;52.420;20.728;2023-03-24T07:55:45;15.45;;;8.88;;
17983;SDS011;9117;52.420;20.728;2023-03-24T07:58:14;14.82;;;8.13;;
17983;SDS011;9117;52.420;20.728;2023-03-24T08:00:43;16.02;;;8.05;;
17983;SDS011;9117;52.420;20.728;2023-03-24T08:03:11;16.60;;;9.15;;
17983;SDS011;9117;52.420;20.728;2023-03-24T08:05:41;13.43;;;8.13;;
17983;SDS011;9117;52.420;20.728;2023-03-24T08:08:11;16.63;;;8.82;;
17983;SDS011;9117;52.420;20.728;2023-03-24T08:10:40;14.68;;;8.43;;
17983;SDS011;9117;52.420;20.728;2023-03-24T08:13:11;13.27;;;7.82;;
17983;SDS011;9117;52.420;20.728;2023-03-24T08:15:39;12.80;;;7.28;;
17983;SDS011;9117;52.420;20.728;2023-03-24T08:18:07;16.10;;;8.48;;
17983;SDS011;9117;52.420;20.728;2023-03-24T08:20:35;11.35;;;7.95;;
17983;SDS011;9117;52.420;20.728;2023-03-24T08:23:04;11.93;;;7.43;;
17983;SDS011;9117;52.420;20.728;2023-03-24T08:25:35;16.35;;;8.25;;
17983;SDS011;9117;52.420;20.728;2023-03-24T08:28:04;15.13;;;7.82;;
17983;SDS011;9117;52.420;20.728;2023-03-24T08:30:33;15.48;;;7.80;;
17983;SDS011;9117;52.420;20.728;2023-03-24T08:33:04;12.73;;;7.97;;
17983;SDS011;9117;52.420;20.728;2023-03-24T08:35:33;14.85;;;7.88;;
17983;SDS011;9117;52.420;20.728;2023-03-24T08:38:04;17.65;;;8.20;;
17983;SDS011;9117;52.420;20.728;2023-03-24T08:40:35;9.98;;;6.88;;
17983;SDS011;9117;52.420;20.728;2023-03-24T08:43:04;11.93;;;6.13;;
17983;SDS011;9117;52.420;20.728;2023-03-24T08:45:35;11.80;;;6.90;;
17983;SDS011;9117;52.420;20.728;2023-03-24T08:48:04;14.27;;;7.22;;
17983;SDS011;9117;52.420;20.728;2023-03-24T08:50:35;10.65;;;6.78;;
17983;SDS011;9117;52.420;20.728;2023-03-24T08:53:05;11.90;;;6.95;;
17983;SDS011;9117;52.420;20.728;2023-03-24T08:55:35;12.32;;;6.95;;
17983;SDS011;9117;52.420;20.728;2023-03-24T08:58:07;10.32;;;5.60;;
17983;SDS011;9117;52.420;20.728;2023-03-24T09:00:36;9.85;;;6.00;;
17983;SDS011;9117;52.420;20.728;2023-03-24T09:03:04;9.80;;;5.78;;
17983;SDS011;9117;52.420;20.728;2023-03-24T09:05:32;10.98;;;6.22;;
17983;SDS011;9117;52.420;20.728;2023-03-24T09:08:20;12.52;;;6.57;;
17983;SDS011;9117;52.420;20.728;2023-03-24T09:10:59;10.10;;;6.00;;
17983;SDS011;9117;52.420;20.728;2023-03-24T09:13:27;12.52;;;6.30;;
17983;SDS011;9117;52.420;20.728;2023-03-24T09:15:57;12.43;;;6.30;;
17983;SDS011;9117;52.420;20.728;2023-03-24T09:18:27;9.82;;;6.25;;
17983;SDS011;9117;52.420;20.728;2023-03-24T09:20:55;12.50;;;6.28;;
17983;SDS011;9117;52.420;20.728;2023-03-24T09:23:23;12.80;;;5.90;;
17983;SDS011;9117;52.420;20.728;2023-03-24T09:25:54;12.77;;;5.95;;
17983;SDS011;9117;52.420;20.728;2023-03-24T09:28:23;10.60;;;5.82;;
17983;SDS011;9117;52.420;20.728;2023-03-24T09:30:55;9.77;;;5.72;;
17983;SDS011;9117;52.420;20.728;2023-03-24T09:33:24;8.60;;;5.07;;
17983;SDS011;9117;52.420;20.728;2023-03-24T09:35:53;8.98;;;5.07;;
17983;SDS011;9117;52.420;20.728;2023-03-24T09:38:25;10.48;;;5.90;;
17983;SDS011;9117;52.420;20.728;2023-03-24T09:40:54;10.05;;;5.32;;
17983;SDS011;9117;52.420;20.728;2023-03-24T09:43:31;9.20;;;4.95;;
17983;SDS011;9117;52.420;20.728;2023-03-24T09:46:05;8.40;;;5.32;;
17983;SDS011;9117;52.420;20.728;2023-03-24T09:48:38;11.18;;;5.95;;
17983;SDS011;9117;52.420;20.728;2023-03-24T09:51:11;10.02;;;5.38;;
17983;SDS011;9117;52.420;20.728;2023-03-24T09:53:48;10.05;;;5.72;;
17983;SDS011;9117;52.420;20.728;2023-03-24T09:56:21;15.02;;;6.35;;
17983;SDS011;9117;52.420;20.728;2023-03-24T09:58:53;13.68;;;5.95;;
17983;SDS011;9117;52.420;20.728;2023-03-24T10:01:29;14.88;;;5.80;;
17983;SDS011;9117;52.420;20.728;2023-03-24T10:03:58;11.85;;;6.05;;
17983;SDS011;9117;52.420;20.728;2023-03-24T10:06:28;12.32;;;6.78;;
17983;SDS011;9117;52.420;20.728;2023-03-24T10:09:06;12.05;;;6.28;;
17983;SDS011;9117;52.420;20.728;2023-03-24T10:11:49;9.90;;;5.90;;
17983;SDS011;9117;52.420;20.728;2023-03-24T10:14:28;10.43;;;6.22;;
17983;SDS011;9117;52.420;20.728;2023-03-24T10:17:09;12.10;;;6.13;;
17983;SDS011;9117;52.420;20.728;2023-03-24T10:19:46;10.02;;;5.50;;
17983;SDS011;9117;52.420;20.728;2023-03-24T10:22:27;12.82;;;6.13;;
17983;SDS011;9117;52.420;20.728;2023-03-24T10:25:00;10.02;;;6.20;;
17983;SDS011;9117;52.420;20.728;2023-03-24T10:27:35;12.73;;;6.45;;
17983;SDS011;9117;52.420;20.728;2023-03-24T10:30:13;11.05;;;6.20;;
17983;SDS011;9117;52.420;20.728;2023-03-24T10:32:44;10.98;;;5.93;;
17983;SDS011;9117;52.420;20.728;2023-03-24T10:35:14;10.95;;;6.20;;
17983;SDS011;9117;52.420;20.728;2023-03-24T10:37:45;10.38;;;5.88;;
17983;SDS011;9117;52.420;20.728;2023-03-24T10:40:16;10.60;;;6.30;;
17983;SDS011;9117;52.420;20.728;2023-03-24T10:42:46;9.48;;;5.25;;
17983;SDS011;9117;52.420;20.728;2023-03-24T10:45:36;8.75;;;5.30;;
17983;SDS011;9117;52.420;20.728;2023-03-24T10:48:07;8.27;;;5.47;;
17983;SDS011;9117;52.420;20.728;2023-03-24T10:50:35;9.68;;;5.53;;
17983;SDS011;9117;52.420;20.728;2023-03-24T10:53:14;9.43;;;5.70;;
17983;SDS011;9117;52.420;20.728;2023-03-24T10:55:45;9.35;;;5.50;;
17983;SDS011;9117;52.420;20.728;2023-03-24T10:58:16;15.38;;;6.82;;
17983;SDS011;9117;52.420;20.728;2023-03-24T11:00:53;8.68;;;6.03;;
17983;SDS011;9117;52.420;20.728;2023-03-24T11:03:24;10.05;;;5.40;;
17983;SDS011;9117;52.420;20.728;2023-03-24T11:05:59;11.50;;;5.78;;
17983;SDS011;9117;52.420;20.728;2023-03-24T11:08:31;20.90;;;5.72;;
17983;SDS011;9117;52.420;20.728;2023-03-24T11:11:11;11.02;;;5.10;;
17983;SDS011;9117;52.420;20.728;2023-03-24T11:13:41;8.93;;;5.32;;
17983;SDS011;9117;52.420;20.728;2023-03-24T11:16:27;10.40;;;5.85;;
17983;SDS011;9117;52.420;20.728;2023-03-24T11:18:57;13.85;;;6.40;;
17983;SDS011;9117;52.420;20.728;2023-03-24T11:21:27;10.65;;;6.78;;
17983;SDS011;9117;52.420;20.728;2023-03-24T11:23:56;11.65;;;6.18;;
17983;SDS011;9117;52.420;20.728;2023-03-24T11:26:29;8.98;;;5.82;;
17983;SDS011;9117;52.420;20.728;2023-03-24T11:29:00;9.85;;;6.22;;
17983;SDS011;9117;52.420;20.728;2023-03-24T11:31:34;11.13;;;5.88;;
17983;SDS011;9117;52.420;20.728;2023-03-24T11:34:06;10.68;;;6.55;;
17983;SDS011;9117;52.420;20.728;2023-03-24T11:36:38;10.55;;;6.20;;
17983;SDS011;9117;52.420;20.728;2023-03-24T11:39:14;10.82;;;5.95;;
17983;SDS011;9117;52.420;20.728;2023-03-24T11:41:51;10.02;;;5.95;;
17983;SDS011;9117;52.420;20.728;2023-03-24T11:44:29;11.60;;;5.93;;
17983;SDS011;9117;52.420;20.728;2023-03-24T11:47:11;10.07;;;6.43;;
17983;SDS011;9117;52.420;20.728;2023-03-24T11:49:44;11.10;;;6.40;;
17983;SDS011;9117;52.420;20.728;2023-03-24T11:52:19;10.60;;;6.60;;
17983;SDS011;9117;52.420;20.728;2023-03-24T11:54:49;12.38;;;6.35;;
17983;SDS011;9117;52.420;20.728;2023-03-24T11:57:19;10.80;;;6.78;;
17983;SDS011;9117;52.420;20.728;2023-03-24T11:59:56;10.13;;;6.50;;
17983;SDS011;9117;52.420;20.728;2023-03-24T12:02:36;11.70;;;6.15;;
17983;SDS011;9117;52.420;20.728;2023-03-24T12:05:20;12.65;;;6.85;;
17983;SDS011;9117;52.420;20.728;2023-03-24T12:08:06;12.52;;;6.82;;
17983;SDS011;9117;52.420;20.728;2023-03-24T12:10:45;11.88;;;6.82;;
17983;SDS011;9117;52.420;20.728;2023-03-24T12:13:32;10.75;;;5.82;;
17983;SDS011;9117;52.420;20.728;2023-03-24T12:16:06;12.45;;;6.45;;
17983;SDS011;9117;52.420;20.728;2023-03-24T12:19:04;10.25;;;6.50;;
17983;SDS011;9117;52.420;20.728;2023-03-24T12:21:52;10.05;;;6.20;;
17983;SDS011;9117;52.420;20.728;2023-03-24T12:24:32;9.55;;;6.30;;
17983;SDS011;9117;52.420;20.728;2023-03-24T12:27:13;9.63;;;5.18;;
17983;SDS011;9117;52.420;20.728;2023-03-24T12:29:53;9.10;;;5.43;;
17983;SDS011;9117;52.420;20.728;2023-03-24T12:32:33;9.95;;;5.40;;
17983;SDS011;9117;52.420;20.728;2023-03-24T12:38:18;10.30;;;5.10;;
17983;SDS011;9117;52.420;20.728;2023-03-24T12:41:13;7.03;;;4.68;;
17983;SDS011;9117;52.420;20.728;2023-03-24T12:44:09;8.25;;;4.60;;
17983;SDS011;9117;52.420;20.728;2023-03-24T12:47:02;6.85;;;3.95;;
17983;SDS011;9117;52.420;20.728;2023-03-24T12:49:43;8.00;;;4.55;;
17983;SDS011;9117;52.420;20.728;2023-03-24T12:52:32;7.47;;;4.25;;
17983;SDS011;9117;52.420;20.728;2023-03-24T12:55:24;9.27;;;4.32;;
17983;SDS011;9117;52.420;20.728;2023-03-24T12:57:58;6.93;;;4.00;;
17983;SDS011;9117;52.420;20.728;2023-03-24T13:00:32;7.55;;;3.85;;
17983;SDS011;9117;52.420;20.728;2023-03-24T13:03:03;7.15;;;3.80;;
17983;SDS011;9117;52.420;20.728;2023-03-24T13:05:38;6.30;;;3.35;;
17983;SDS011;9117;52.420;20.728;2023-03-24T13:08:12;5.78;;;3.25;;
17983;SDS011;9117;52.420;20.728;2023-03-24T13:10:43;6.53;;;4.22;;
17983;SDS011;9117;52.420;20.728;2023-03-24T13:13:15;5.85;;;3.22;;
17983;SDS011;9117;52.420;20.728;2023-03-24T13:15:47;5.47;;;3.63;;
17983;SDS011;9117;52.420;20.728;2023-03-24T13:18:22;5.50;;;3.50;;
17983;SDS011;9117;52.420;20.728;2023-03-24T13:20:58;5.13;;;3.72;;
17983;SDS011;9117;52.420;20.728;2023-03-24T13:23:36;6.38;;;3.15;;
17983;SDS011;9117;52.420;20.728;2023-03-24T13:26:14;5.00;;;3.10;;
17983;SDS011;9117;52.420;20.728;2023-03-24T13:28:51;7.05;;;2.80;;
17983;SDS011;9117;52.420;20.728;2023-03-24T13:31:27;6.40;;;2.80;;
17983;SDS011;9117;52.420;20.728;2023-03-24T13:34:01;6.18;;;2.85;;
17983;SDS011;9117;52.420;20.728;2023-03-24T13:36:38;4.38;;;2.42;;
17983;SDS011;9117;52.420;20.728;2023-03-24T13:39:13;3.75;;;2.42;;
17983;SDS011;9117;52.420;20.728;2023-03-24T13:41:45;4.00;;;2.15;;
17983;SDS011;9117;52.420;20.728;2023-03-24T13:44:18;4.30;;;2.58;;
17983;SDS011;9117;52.420;20.728;2023-03-24T13:47:04;4.63;;;2.20;;
17983;SDS011;9117;52.420;20.728;2023-03-24T13:49:36;4.55;;;2.55;;
17983;SDS011;9117;52.420;20.728;2023-03-24T13:52:18;4.28;;;2.38;;
17983;SDS011;9117;52.420;20.728;2023-03-24T13:54:51;4.60;;;2.60;;
17983;SDS011;9117;52.420;20.728;2023-03-24T13:57:24;4.93;;;2.70;;
17983;SDS011;9117;52.420;20.728;2023-03-24T13:59:57;4.13;;;2.28;;
17983;SDS011;9117;52.420;20.728;2023-03-24T14:02:44;3.90;;;2.22;;
17983;SDS011;9117;52.420;20.728;2023-03-24T14:08:32;4.72;;;2.47;;
17983;SDS011;9117;52.420;20.728;2023-03-24T14:14:21;3.10;;;2.30;;
17983;SDS011;9117;52.420;20.728;2023-03-24T14:16:51;8.35;;;2.95;;
17983;SDS011;9117;52.420;20.728;2023-03-24T14:19:30;3.42;;;2.50;;
17983;SDS011;9117;52.420;20.728;2023-03-24T14:22:14;5.03;;;2.38;;
17983;SDS011;9117;52.420;20.728;2023-03-24T14:24:54;5.38;;;2.47;;
17983;SDS011;9117;52.420;20.728;2023-03-24T14:27:34;4.88;;;2.50;;
17983;SDS011;9117;52.420;20.728;2023-03-24T14:30:12;4.60;;;2.38;;
17983;SDS011;9117;52.420;20.728;2023-03-24T14:32:46;5.80;;;2.33;;
17983;SDS011;9117;52.420;20.728;2023-03-24T14:35:19;4.22;;;2.28;;
17983;SDS011;9117;52.420;20.728;2023-03-24T14:37:52;5.95;;;2.50;;
17983;SDS011;9117;52.420;20.728;2023-03-24T14:40:26;3.30;;;2.08;;
17983;SDS011;9117;52.420;20.728;2023-03-24T14:43:11;5.40;;;2.58;;
17983;SDS011;9117;52.420;20.728;2023-03-24T14:51:29;4.15;;;2.42;;
17983;SDS011;9117;52.420;20.728;2023-03-24T14:54:05;3.97;;;2.70;;
17983;SDS011;9117;52.420;20.728;2023-03-24T14:56:40;3.88;;;2.50;;
17983;SDS011;9117;52.420;20.728;2023-03-24T14:59:15;6.70;;;2.60;;
17983;SDS011;9117;52.420;20.728;2023-03-24T15:01:53;4.65;;;2.50;;
17983;SDS011;9117;52.420;20.728;2023-03-24T15:04:30;7.38;;;2.30;;
17983;SDS011;9117;52.420;20.728;2023-03-24T15:07:04;8.23;;;2.60;;
17983;SDS011;9117;52.420;20.728;2023-03-24T15:09:34;4.05;;;2.00;;
17983;SDS011;9117;52.420;20.728;2023-03-24T15:12:04;4.95;;;2.05;;
17983;SDS011;9117;52.420;20.728;2023-03-24T15:14:33;7.07;;;2.63;;
17983;SDS011;9117;52.420;20.728;2023-03-24T15:17:05;5.15;;;2.50;;
17983;SDS011;9117;52.420;20.728;2023-03-24T15:19:42;3.38;;;2.40;;
17983;SDS011;9117;52.420;20.728;2023-03-24T15:22:12;3.78;;;2.30;;
17983;SDS011;9117;52.420;20.728;2023-03-24T15:24:41;4.22;;;2.15;;
17983;SDS011;9117;52.420;20.728;2023-03-24T15:27:16;4.20;;;2.80;;
17983;SDS011;9117;52.420;20.728;2023-03-24T15:29:53;4.90;;;2.72;;
17983;SDS011;9117;52.420;20.728;2023-03-24T15:32:25;4.30;;;2.63;;
17983;SDS011;9117;52.420;20.728;2023-03-24T15:34:57;5.40;;;2.88;;
17983;SDS011;9117;52.420;20.728;2023-03-24T15:37:32;6.07;;;2.80;;
17983;SDS011;9117;52.420;20.728;2023-03-24T15:40:02;5.47;;;2.60;;